createdAt,value
2019-05-09T00:00:33.531Z,7.03
2019-05-09T00:03:03.469Z,8.57
2019-05-09T00:05:33.463Z,7.77
2019-05-09T00:08:03.505Z,7.30
2019-05-09T00:10:39.381Z,7.90
2019-05-09T00:13:03.387Z,10.07
2019-05-09T00:15:33.216Z,8.23
2019-05-09T00:18:03.865Z,8.13
2019-05-09T00:20:49.713Z,9.27
2019-05-09T00:23:18.155Z,7.40
2019-05-09T00:25:46.585Z,9.63
2019-05-09T00:28:15.027Z,8.47
2019-05-09T00:31:03.448Z,8.63
2019-05-09T00:33:34.312Z,8.67
2019-05-09T00:36:04.157Z,7.73
2019-05-09T00:38:40.154Z,7.07
2019-05-09T00:41:08.586Z,6.10
2019-05-09T00:43:37.026Z,5.47
2019-05-09T00:46:07.103Z,7.40
2019-05-09T00:48:53.774Z,4.37
2019-05-09T00:51:23.306Z,4.30
2019-05-09T00:53:53.642Z,4.23
2019-05-09T00:56:23.911Z,4.80
2019-05-09T00:58:53.507Z,4.33
2019-05-09T01:01:23.933Z,5.43
2019-05-09T01:03:53.522Z,3.23
2019-05-09T01:06:23.896Z,2.70
2019-05-09T01:08:53.602Z,3.73
2019-05-09T01:11:24.331Z,3.33
2019-05-09T01:13:54.353Z,5.57
2019-05-09T01:16:24.106Z,2.37
2019-05-09T01:18:54.412Z,3.73
2019-05-09T01:21:24.076Z,4.00
2019-05-09T01:23:53.921Z,4.30
2019-05-09T01:26:24.067Z,3.37
2019-05-09T01:28:53.873Z,3.57
2019-05-09T01:31:24.011Z,3.33
2019-05-09T01:33:57.204Z,6.77
2019-05-09T01:36:27.282Z,4.50
2019-05-09T01:38:55.726Z,2.90
2019-05-09T01:41:30.321Z,2.23
2019-05-09T01:43:54.341Z,3.27
2019-05-09T01:46:23.612Z,5.70
2019-05-09T01:48:53.940Z,2.10
2019-05-09T01:51:23.305Z,2.10
2019-05-09T01:53:53.693Z,2.47
2019-05-09T01:56:23.599Z,3.00
2019-05-09T01:58:53.881Z,3.50
2019-05-09T02:01:24.048Z,3.90
2019-05-09T02:03:53.734Z,3.33
2019-05-09T02:06:24.376Z,4.50
2019-05-09T02:08:54.512Z,3.87
2019-05-09T02:11:23.838Z,4.10
2019-05-09T02:13:53.520Z,4.90
2019-05-09T02:16:23.793Z,6.87
2019-05-09T02:18:53.878Z,6.10
2019-05-09T02:21:24.026Z,6.43
2019-05-09T02:23:53.722Z,4.10
2019-05-09T02:26:24.076Z,5.40
2019-05-09T02:28:53.808Z,3.73
2019-05-09T02:31:24.434Z,5.50
2019-05-09T02:33:54.109Z,5.10
2019-05-09T02:36:22.862Z,4.20
2019-05-09T02:38:51.380Z,4.50
2019-05-09T02:41:20.145Z,5.47
2019-05-09T02:43:49.622Z,8.63
2019-05-09T02:46:22.685Z,3.83
2019-05-09T02:48:51.121Z,3.13
2019-05-09T02:51:19.567Z,5.90
2019-05-09T02:53:48.696Z,2.70
2019-05-09T02:56:18.907Z,5.50
2019-05-09T02:58:49.170Z,4.70
2019-05-09T03:01:22.383Z,5.27
2019-05-09T03:03:50.818Z,5.23
2019-05-09T03:06:19.786Z,6.57
2019-05-09T03:08:49.229Z,5.23
2019-05-09T03:11:18.864Z,4.33
2019-05-09T03:13:49.596Z,6.80
2019-05-09T03:16:19.063Z,5.20
2019-05-09T03:18:49.411Z,6.90
2019-05-09T03:21:19.801Z,7.83
2019-05-09T03:23:49.033Z,10.10
2019-05-09T03:26:19.615Z,8.00
2019-05-09T03:28:58.881Z,6.40
2019-05-09T03:31:30.398Z,6.80
2019-05-09T03:33:59.738Z,9.60
2019-05-09T03:36:28.456Z,7.10
2019-05-09T03:38:57.812Z,7.17
2019-05-09T03:41:28.237Z,6.73
2019-05-09T03:43:58.565Z,5.20
2019-05-09T03:46:28.473Z,5.33
2019-05-09T03:48:58.557Z,6.53
2019-05-09T03:51:27.537Z,7.87
2019-05-09T03:53:57.637Z,6.70
2019-05-09T03:56:28.061Z,7.53
2019-05-09T03:58:57.826Z,7.70
2019-05-09T04:01:28.036Z,9.30
2019-05-09T04:03:58.436Z,8.00
2019-05-09T04:06:28.180Z,8.70
2019-05-09T04:08:58.490Z,7.63
2019-05-09T04:11:27.642Z,6.90
2019-05-09T04:14:01.731Z,8.37
2019-05-09T04:16:30.245Z,7.63
2019-05-09T04:18:58.681Z,8.30
2019-05-09T04:21:27.970Z,9.07
2019-05-09T04:23:58.506Z,9.37
2019-05-09T04:26:28.788Z,8.23
2019-05-09T04:28:57.803Z,10.03
2019-05-09T04:31:28.000Z,11.03
2019-05-09T04:33:57.434Z,10.73
2019-05-09T04:36:41.153Z,19.60
2019-05-09T04:39:12.723Z,18.80
2019-05-09T04:41:42.137Z,15.13
2019-05-09T04:44:16.791Z,12.93
2019-05-09T04:46:43.452Z,11.97
2019-05-09T04:49:11.941Z,8.37
2019-05-09T04:51:40.376Z,7.37
2019-05-09T04:54:08.835Z,7.87
2019-05-09T04:56:42.018Z,10.30
2019-05-09T04:59:10.460Z,24.50
2019-05-09T05:01:52.841Z,12.33
2019-05-09T05:04:22.754Z,8.10
2019-05-09T05:06:51.369Z,14.97
2019-05-09T05:09:21.374Z,19.50
2019-05-09T05:11:50.073Z,15.10
2019-05-09T05:14:21.745Z,12.37
2019-05-09T05:16:53.586Z,5.13
2019-05-09T05:19:23.056Z,6.03
2019-05-09T05:21:51.489Z,4.87
2019-05-09T05:24:23.990Z,4.70
2019-05-09T05:26:52.513Z,4.53
2019-05-09T05:29:20.953Z,6.73
2019-05-09T05:31:50.057Z,5.00
2019-05-09T05:34:27.413Z,4.67
2019-05-09T05:36:58.142Z,4.50
2019-05-09T05:39:28.310Z,5.40
2019-05-09T05:41:57.656Z,5.07
2019-05-09T05:44:28.363Z,4.47
2019-05-09T05:46:58.573Z,5.43
2019-05-09T05:49:27.949Z,4.20
2019-05-09T05:51:57.657Z,3.93
2019-05-09T05:54:27.742Z,4.53
2019-05-09T05:56:57.900Z,4.33
2019-05-09T05:59:28.548Z,3.93
2019-05-09T06:01:58.279Z,4.97
2019-05-09T06:04:27.563Z,5.33
2019-05-09T06:06:58.665Z,6.77
2019-05-09T06:09:28.029Z,7.67
2019-05-09T06:11:57.757Z,4.20
2019-05-09T06:14:28.391Z,3.70
2019-05-09T06:16:58.766Z,3.50
2019-05-09T06:19:28.641Z,4.67
2019-05-09T06:21:57.474Z,3.73
2019-05-09T06:24:28.276Z,4.63
2019-05-09T06:26:58.371Z,4.43
2019-05-09T06:29:28.559Z,3.50
2019-05-09T06:31:58.487Z,5.03
2019-05-09T06:34:27.768Z,2.87
2019-05-09T06:36:58.550Z,5.20
2019-05-09T06:39:28.502Z,2.77
2019-05-09T06:41:57.529Z,3.67
2019-05-09T06:44:47.903Z,4.27
2019-05-09T06:47:18.522Z,3.80
2019-05-09T06:49:51.863Z,2.30
2019-05-09T06:52:20.309Z,2.10
2019-05-09T06:54:58.660Z,2.67
2019-05-09T06:57:42.885Z,3.07
2019-05-09T07:00:31.655Z,1.80
2019-05-09T07:03:08.342Z,2.10
2019-05-09T07:05:53.479Z,2.23
2019-05-09T07:08:32.685Z,1.97
2019-05-09T07:11:01.135Z,3.30
2019-05-09T07:13:29.577Z,1.70
2019-05-09T07:15:58.561Z,2.70
2019-05-09T07:18:27.701Z,4.60
2019-05-09T07:20:57.700Z,1.57
2019-05-09T07:23:28.172Z,1.53
2019-05-09T07:25:58.373Z,3.07
2019-05-09T07:28:28.222Z,3.03
2019-05-09T07:31:01.497Z,1.00
2019-05-09T07:33:31.580Z,2.00
2019-05-09T07:36:00.033Z,1.70
2019-05-09T07:38:29.446Z,1.43
2019-05-09T07:40:58.936Z,3.33
2019-05-09T07:43:28.183Z,1.37
2019-05-09T07:46:08.738Z,2.60
2019-05-09T07:48:39.189Z,2.17
2019-05-09T07:51:08.036Z,2.17
2019-05-09T07:53:38.049Z,2.60
2019-05-09T07:56:07.899Z,2.70
2019-05-09T07:58:37.696Z,2.43
2019-05-09T08:01:08.549Z,3.47
2019-05-09T08:03:38.428Z,1.13
2019-05-09T08:06:08.734Z,2.90
2019-05-09T08:08:38.471Z,3.73
2019-05-09T08:11:08.848Z,2.10
2019-05-09T08:13:39.259Z,1.03
2019-05-09T08:16:13.869Z,1.97
2019-05-09T08:18:37.969Z,2.53
2019-05-09T08:21:08.388Z,1.70
2019-05-09T08:23:38.032Z,1.40
2019-05-09T08:26:08.742Z,1.37
2019-05-09T08:28:39.027Z,0.77
2019-05-09T08:31:08.267Z,5.77
2019-05-09T08:33:38.042Z,4.40
2019-05-09T08:36:08.794Z,2.60
2019-05-09T08:38:38.993Z,1.63
2019-05-09T08:41:09.016Z,3.23
2019-05-09T08:43:39.653Z,2.07
2019-05-09T08:46:09.240Z,2.90
2019-05-09T08:48:38.101Z,2.67
2019-05-09T08:51:14.350Z,2.47
2019-05-09T08:53:42.861Z,2.33
2019-05-09T08:56:13.144Z,1.47
2019-05-09T08:58:41.478Z,1.30
2019-05-09T09:01:12.107Z,1.33
2019-05-09T09:03:40.941Z,2.60
2019-05-09T09:06:09.444Z,3.03
2019-05-09T09:08:38.147Z,1.67
2019-05-09T09:11:08.611Z,5.93
2019-05-09T09:13:37.822Z,3.23
2019-05-09T09:16:15.745Z,3.07
2019-05-09T09:18:38.770Z,3.50
2019-05-09T09:21:08.093Z,2.37
2019-05-09T09:23:43.894Z,1.90
2019-05-09T09:26:08.012Z,1.90
2019-05-09T09:28:37.933Z,4.03
2019-05-09T09:31:08.161Z,4.20
2019-05-09T09:33:37.616Z,4.67
2019-05-09T09:36:08.506Z,2.10
2019-05-09T09:38:37.530Z,3.20
2019-05-09T09:41:07.759Z,5.20
2019-05-09T09:43:38.382Z,5.70
2019-05-09T09:46:14.019Z,2.90
2019-05-09T09:48:38.878Z,5.10
2019-05-09T09:51:08.067Z,3.63
2019-05-09T09:53:38.546Z,4.03
2019-05-09T09:56:08.675Z,7.47
2019-05-09T09:58:37.965Z,3.57
2019-05-09T10:01:09.041Z,5.63
2019-05-09T10:03:37.982Z,3.97
2019-05-09T10:06:06.457Z,4.03
2019-05-09T10:08:34.874Z,5.23
2019-05-09T10:11:03.288Z,4.07
2019-05-09T10:13:31.723Z,4.43
2019-05-09T10:16:04.712Z,5.10
2019-05-09T10:18:34.766Z,2.55
2019-05-09T10:21:17.109Z,4.12
2019-05-09T10:23:48.145Z,4.10
2019-05-09T10:26:17.767Z,2.90
2019-05-09T10:28:48.385Z,7.58
2019-05-09T10:31:16.082Z,4.30
2019-05-09T10:33:44.486Z,3.83
2019-05-09T10:36:12.898Z,4.45
2019-05-09T10:38:41.305Z,3.40
2019-05-09T10:41:11.294Z,4.40
2019-05-09T10:43:58.034Z,6.00
2019-05-09T10:46:52.761Z,5.17
2019-05-09T10:49:10.562Z,2.70
2019-05-09T10:51:38.970Z,1.53
2019-05-09T10:54:08.321Z,4.47
2019-05-09T10:56:38.435Z,3.07
2019-05-09T10:59:07.810Z,3.80
2019-05-09T11:01:38.236Z,2.57
2019-05-09T11:04:08.156Z,3.60
2019-05-09T11:06:38.309Z,2.33
2019-05-09T11:09:09.571Z,4.13
2019-05-09T11:11:38.049Z,2.70
2019-05-09T11:14:08.591Z,2.30
2019-05-09T11:16:44.980Z,1.43
2019-05-09T11:19:08.056Z,2.37
2019-05-09T11:21:39.105Z,2.53
2019-05-09T11:24:08.328Z,1.60
2019-05-09T11:26:39.509Z,2.03
2019-05-09T11:29:08.007Z,1.97
2019-05-09T11:31:38.496Z,3.73
2019-05-09T11:34:08.976Z,1.77
2019-05-09T11:36:38.007Z,1.90
2019-05-09T11:39:10.790Z,2.40
2019-05-09T11:41:38.566Z,4.40
2019-05-09T11:44:08.595Z,2.37
2019-05-09T11:46:38.175Z,2.80
2019-05-09T11:49:08.419Z,0.90
2019-05-09T11:51:37.077Z,3.50
2019-05-09T11:54:05.490Z,1.03
2019-05-09T11:56:33.908Z,2.50
2019-05-09T11:59:02.301Z,1.63
2019-05-09T12:01:30.723Z,1.20
2019-05-09T12:03:59.121Z,1.70
2019-05-09T12:06:28.946Z,1.23
2019-05-09T12:08:58.830Z,2.40
2019-05-09T12:11:27.606Z,2.00
2019-05-09T12:13:58.153Z,3.13
2019-05-09T12:16:27.916Z,3.13
2019-05-09T12:18:58.492Z,2.93
2019-05-09T12:21:28.178Z,1.73
2019-05-09T12:23:58.080Z,1.30
2019-05-09T12:26:29.244Z,2.77
2019-05-09T12:28:57.810Z,1.40
2019-05-09T12:31:28.766Z,2.30
2019-05-09T12:33:59.330Z,2.27
2019-05-09T12:36:28.646Z,2.17
2019-05-09T12:38:59.259Z,1.63
2019-05-09T12:41:31.626Z,2.93
2019-05-09T12:43:57.732Z,0.73
2019-05-09T12:46:28.380Z,1.27
2019-05-09T12:48:58.775Z,2.20
2019-05-09T12:51:28.292Z,3.03
2019-05-09T12:53:57.889Z,2.10
2019-05-09T12:56:28.605Z,1.47
2019-05-09T12:58:57.887Z,2.30
2019-05-09T13:01:26.571Z,2.07
2019-05-09T13:03:55.004Z,1.53
2019-05-09T13:06:24.706Z,2.00
2019-05-09T13:08:53.247Z,1.27
2019-05-09T13:11:21.816Z,0.93
2019-05-09T13:13:50.319Z,2.60
2019-05-09T13:16:20.386Z,1.80
2019-05-09T13:19:03.047Z,1.03
2019-05-09T13:21:34.016Z,1.37
2019-05-09T13:24:02.671Z,2.47
2019-05-09T13:26:31.341Z,1.43
2019-05-09T13:28:59.783Z,2.00
2019-05-09T13:31:29.348Z,0.70
2019-05-09T13:33:58.543Z,1.83
2019-05-09T13:36:28.370Z,1.00
2019-05-09T13:39:04.378Z,1.60
2019-05-09T13:41:27.350Z,0.73
2019-05-09T13:43:59.131Z,1.67
2019-05-09T13:46:28.312Z,1.73
2019-05-09T13:49:08.344Z,0.90
2019-05-09T13:51:26.217Z,1.90
2019-05-09T13:53:54.673Z,1.40
2019-05-09T13:56:23.077Z,3.70
2019-05-09T13:58:51.493Z,0.60
2019-05-09T14:01:19.897Z,3.13
2019-05-09T14:03:50.115Z,2.90
2019-05-09T14:06:18.696Z,2.07
2019-05-09T14:08:48.930Z,2.13
2019-05-09T14:11:19.317Z,1.27
2019-05-09T14:13:48.763Z,4.43
2019-05-09T14:16:22.172Z,4.13
2019-05-09T14:18:48.577Z,4.00
2019-05-09T14:21:21.453Z,2.40
2019-05-09T14:24:00.821Z,2.93
2019-05-09T14:26:18.074Z,2.80
2019-05-09T14:28:49.060Z,3.00
2019-05-09T14:31:18.565Z,3.47
2019-05-09T14:33:47.759Z,3.77
2019-05-09T14:36:16.366Z,1.90
2019-05-09T14:38:44.833Z,2.10
2019-05-09T14:41:13.237Z,3.17
2019-05-09T14:43:41.671Z,3.37
2019-05-09T14:46:10.075Z,1.97
2019-05-09T14:48:38.482Z,3.80
2019-05-09T14:51:07.755Z,0.87
2019-05-09T14:53:38.917Z,0.93
2019-05-09T14:56:08.713Z,3.73
2019-05-09T14:58:38.809Z,1.13
2019-05-09T15:01:08.623Z,1.50
2019-05-09T15:03:38.853Z,1.00
2019-05-09T15:06:07.611Z,1.00
2019-05-09T15:08:38.132Z,1.10
2019-05-09T15:11:09.781Z,1.80
2019-05-09T15:13:36.454Z,1.43
2019-05-09T15:16:04.942Z,3.53
2019-05-09T15:18:33.337Z,2.33
2019-05-09T15:21:01.804Z,2.83
2019-05-09T15:23:30.201Z,1.20
2019-05-09T15:25:58.764Z,0.60
2019-05-09T15:28:29.134Z,0.90
2019-05-09T15:30:59.423Z,1.60
2019-05-09T15:33:27.671Z,5.90
2019-05-09T15:35:58.716Z,1.20
2019-05-09T15:38:28.776Z,1.37
2019-05-09T15:40:56.624Z,2.57
2019-05-09T15:43:25.123Z,1.20
2019-05-09T15:45:57.966Z,1.53
2019-05-09T15:48:27.360Z,2.77
2019-05-09T15:50:55.455Z,1.13
2019-05-09T15:53:23.859Z,2.00
2019-05-09T15:55:52.356Z,1.87
2019-05-09T15:58:20.757Z,2.27
2019-05-09T16:00:49.331Z,3.57
2019-05-09T16:03:18.634Z,2.13
2019-05-09T16:05:47.900Z,2.87
2019-05-09T16:08:18.507Z,2.57
2019-05-09T16:10:46.637Z,3.50
2019-05-09T16:13:17.536Z,1.63
2019-05-09T16:15:45.217Z,1.67
2019-05-09T16:18:13.628Z,2.47
2019-05-09T16:20:42.026Z,2.10
2019-05-09T16:23:10.433Z,2.50
2019-05-09T16:25:38.908Z,1.87
2019-05-09T16:28:08.194Z,2.80
2019-05-09T16:30:38.316Z,2.07
2019-05-09T16:33:08.092Z,4.20
2019-05-09T16:35:38.108Z,3.57
2019-05-09T16:38:10.606Z,3.90
2019-05-09T16:40:38.624Z,3.40
2019-05-09T16:43:09.062Z,3.53
2019-05-09T16:45:38.021Z,3.97
2019-05-09T16:48:11.452Z,2.37
2019-05-09T16:50:39.993Z,2.00
2019-05-09T16:53:09.177Z,2.67
2019-05-09T16:55:38.973Z,3.27
2019-05-09T16:58:08.664Z,3.30
2019-05-09T17:00:47.948Z,3.80
2019-05-09T17:03:17.661Z,2.50
2019-05-09T17:05:46.354Z,2.90
2019-05-09T17:08:14.766Z,3.17
2019-05-09T17:10:43.248Z,4.17
2019-05-09T17:13:11.897Z,2.67
2019-05-09T17:15:40.304Z,3.03
2019-05-09T17:18:09.967Z,4.97
2019-05-09T17:20:58.609Z,2.80
2019-05-09T17:23:29.630Z,2.43
2019-05-09T17:25:58.329Z,2.70
2019-05-09T17:28:28.424Z,3.37
2019-05-09T17:30:57.910Z,2.77
2019-05-09T17:33:28.769Z,3.33
2019-05-09T17:35:57.765Z,2.90
2019-05-09T17:38:27.895Z,7.80
2019-05-09T17:40:57.735Z,11.87
2019-05-09T17:43:27.859Z,6.07
2019-05-09T17:45:58.484Z,3.20
2019-05-09T17:48:28.540Z,4.53
2019-05-09T17:50:57.913Z,2.03
2019-05-09T17:53:29.336Z,1.70
2019-05-09T17:55:58.623Z,2.70
2019-05-09T17:58:32.526Z,3.10
2019-05-09T18:00:57.671Z,2.00
2019-05-09T18:03:28.796Z,3.40
2019-05-09T18:05:57.733Z,2.03
2019-05-09T18:08:28.337Z,1.80
2019-05-09T18:10:58.300Z,1.10
2019-05-09T18:13:29.498Z,1.27
2019-05-09T18:15:56.880Z,1.17
2019-05-09T18:18:28.168Z,2.40
2019-05-09T18:20:57.814Z,1.30
2019-05-09T18:23:28.136Z,1.37
2019-05-09T18:25:58.331Z,1.70
2019-05-09T18:28:26.050Z,0.93
2019-05-09T18:30:54.458Z,1.03
2019-05-09T18:33:25.103Z,1.53
2019-05-09T18:35:53.598Z,2.93
2019-05-09T18:38:28.249Z,1.30
2019-05-09T18:40:57.982Z,1.27
2019-05-09T18:43:27.438Z,2.43
2019-05-09T18:45:57.745Z,2.20
2019-05-09T18:48:27.795Z,1.47
2019-05-09T18:50:56.936Z,1.63
2019-05-09T18:53:25.523Z,2.23
2019-05-09T18:55:53.993Z,1.40
2019-05-09T18:58:22.503Z,2.30
2019-05-09T19:00:51.550Z,1.57
2019-05-09T19:03:20.967Z,2.67
2019-05-09T19:05:49.690Z,1.33
2019-05-09T19:08:19.374Z,4.00
2019-05-09T19:10:51.816Z,1.30
2019-05-09T19:13:19.050Z,1.67
2019-05-09T19:15:49.087Z,2.33
2019-05-09T19:18:34.409Z,2.17
2019-05-09T19:21:04.545Z,2.33
2019-05-09T19:23:33.056Z,4.07
2019-05-09T19:26:03.111Z,2.40
2019-05-09T19:28:31.524Z,2.03
2019-05-09T19:30:59.926Z,2.10
2019-05-09T19:33:28.337Z,3.13
2019-05-09T19:35:56.740Z,2.73
2019-05-09T19:38:25.152Z,2.53
2019-05-09T19:40:53.562Z,2.93
2019-05-09T19:43:21.974Z,3.73
2019-05-09T19:45:50.390Z,3.30
2019-05-09T19:48:18.870Z,3.23
2019-05-09T19:50:47.278Z,4.07
2019-05-09T19:53:15.682Z,2.37
2019-05-09T19:55:44.135Z,3.50
2019-05-09T19:58:12.545Z,6.17
2019-05-09T20:00:41.225Z,3.13
2019-05-09T20:03:09.695Z,2.90
2019-05-09T20:05:38.139Z,2.73
2019-05-09T20:08:06.650Z,3.50
2019-05-09T20:10:52.050Z,2.77
2019-05-09T20:13:22.154Z,3.30
2019-05-09T20:15:50.629Z,3.80
2019-05-09T20:18:19.113Z,4.00
2019-05-09T20:20:47.515Z,3.83
2019-05-09T20:23:15.929Z,4.87
2019-05-09T20:25:44.336Z,7.13
2019-05-09T20:28:12.738Z,4.87
2019-05-09T20:30:41.155Z,3.90
2019-05-09T20:33:09.983Z,4.10
2019-05-09T20:35:38.405Z,4.00
2019-05-09T20:38:06.997Z,4.40
2019-05-09T20:40:35.599Z,5.17
2019-05-09T20:43:04.186Z,4.97
2019-05-09T20:45:32.789Z,5.97
2019-05-09T20:48:01.377Z,6.10
2019-05-09T20:50:29.989Z,6.00
2019-05-09T20:53:09.221Z,6.83
2019-05-09T20:55:28.993Z,7.20
2019-05-09T20:57:57.660Z,8.00
2019-05-09T21:00:26.260Z,7.60
2019-05-09T21:02:54.852Z,8.20
2019-05-09T21:05:23.462Z,7.63
2019-05-09T21:07:52.057Z,9.67
2019-05-09T21:10:20.644Z,8.43
2019-05-09T21:12:49.244Z,8.10
2019-05-09T21:15:17.897Z,8.63
2019-05-09T21:17:46.490Z,8.33
2019-05-09T21:20:15.145Z,8.33
2019-05-09T21:22:43.747Z,8.73
2019-05-09T21:25:12.510Z,8.97
2019-05-09T21:27:41.102Z,9.00
2019-05-09T21:30:11.847Z,8.23
2019-05-09T21:32:40.445Z,11.57
2019-05-09T21:35:08.964Z,7.90
2019-05-09T21:37:37.360Z,6.03
2019-05-09T21:40:07.519Z,5.80
2019-05-09T21:42:36.416Z,4.67
2019-05-09T21:45:06.585Z,3.80
2019-05-09T21:47:35.194Z,4.03
2019-05-09T21:50:07.658Z,3.80
2019-05-09T21:52:36.085Z,3.90
2019-05-09T21:55:04.754Z,3.93
2019-05-09T21:57:33.166Z,3.40
2019-05-09T22:00:01.580Z,3.33
2019-05-09T22:02:30.167Z,3.23
2019-05-09T22:04:58.561Z,4.20
2019-05-09T22:07:26.954Z,4.20
2019-05-09T22:09:55.357Z,4.23
2019-05-09T22:12:23.756Z,4.13
2019-05-09T22:14:52.176Z,5.00
2019-05-09T22:17:24.925Z,3.60
2019-05-09T22:19:53.338Z,3.30
2019-05-09T22:22:21.751Z,3.27
2019-05-09T22:24:50.158Z,3.33
2019-05-09T22:27:18.561Z,3.97
2019-05-09T22:29:46.965Z,4.40
2019-05-09T22:32:15.377Z,3.73
2019-05-09T22:34:43.784Z,3.43
2019-05-09T22:37:12.361Z,4.60
2019-05-09T22:39:40.762Z,3.37
2019-05-09T22:42:09.208Z,3.93
2019-05-09T22:44:37.614Z,3.77
2019-05-09T22:47:06.033Z,4.63
2019-05-09T22:49:34.433Z,3.80
2019-05-09T22:52:02.855Z,4.97
2019-05-09T22:54:31.254Z,4.07
2019-05-09T22:56:59.670Z,4.77
2019-05-09T22:59:28.074Z,3.33
2019-05-09T23:01:56.483Z,4.97
2019-05-09T23:04:24.900Z,3.20
2019-05-09T23:06:53.378Z,3.67
2019-05-09T23:09:21.789Z,4.27
2019-05-09T23:11:50.210Z,5.63
2019-05-09T23:14:18.624Z,3.20
2019-05-09T23:16:50.227Z,3.20
2019-05-09T23:19:17.248Z,4.87
2019-05-09T23:21:45.654Z,5.33
2019-05-09T23:24:27.518Z,4.40
2019-05-09T23:26:45.836Z,4.20
2019-05-09T23:29:14.310Z,4.30
2019-05-09T23:31:56.623Z,4.83
2019-05-09T23:34:25.031Z,4.63
2019-05-09T23:36:53.424Z,4.40
2019-05-09T23:39:23.547Z,4.80
2019-05-09T23:41:51.989Z,4.73
2019-05-09T23:44:20.491Z,5.07
2019-05-09T23:46:49.331Z,5.67
2019-05-09T23:49:17.742Z,5.27
2019-05-09T23:51:49.500Z,5.43
2019-05-09T23:54:45.931Z,5.23
2019-05-09T23:57:27.481Z,5.47
